AirNav   Duncan Aviation - Near you to keep you flying
 
 424 users online  

59LA Transco Delcambre Heliport
Delcambre, Louisiana, USA

GOING TO DELCAMBRE?


FAA INFORMATION EFFECTIVE 08 SEPTEMBER 2022

Location

FAA Identifier: 59LA
Lat/Long: 29-57-00.7390N 091-58-57.4370W
29-57.012317N 091-58.957283W
29.9502053,-91.9826214
(estimated)
Elevation: 8 ft. / 2 m (estimated)
Variation: 04E (1985)
From city: 1 mile W of DELCAMBRE, LA
Time zone: UTC -5 (UTC -6 during Standard Time)
Zip code: 70528

Heliport Operations

Heliport use: Private use. Permission required prior to landing
Activation date: 11/1982
Control tower: no
ARTCC: HOUSTON CENTER
FSS: DE RIDDER FLIGHT SERVICE STATION
Attendance: UNATNDD
Wind indicator: yes
Segmented circle: no

Heliport Communications

WX AWOS-3 at IYA (5 nm W): 118.875 (337-892-0526)
WX ASOS at ARA (7 nm NE): 133.325 (337-365-0128)
WX ASOS at LFT (15 nm N): 134.05 ((337)262-2757)

Nearby radio navigation aids

VOR radial/distance  VOR name  Freq  Var
LFTr175/14.6LAFAYETTE VORTAC109.8003E
LLAr046/26.7WHITE LAKE VOR/DME114.9504E

 
NDB name  Hdg/Dist  Freq  Var  ID
ABBEVILLE130/9.923002EBNZ -... -. --..

Heliport Services

Runway Information

Helipad H1

Dimensions: 40 x 40 ft. / 12 x 12 m
Surface: concrete
Latitude: 29-57.012333N
Longitude: 091-58.957333W
Elevation: 8.0 ft.
Traffic pattern: leftleft

Heliport Ownership and Management from official FAA records

Ownership: Privately-owned
Owner: CDLD, LLC - CARL DUHON
1113 JOHNSON ST. PO BOX 52566
LAFAYETTE, LA 52566
Phone 713-821-1004
Manager: PAUL PAINTER
PO BOX 2040
HOUSTON, TX 77252
Phone 713-609-4830

Additional Remarks

A52-H1 40' TOWER SW.
HELIPAD TEMPORARILY CLOSED.
FOR CD CTC LAFAYETTE APCH AT 337-262-2729, WHEN APCH CLSD CTC HOUSTON ARTCC AT 281-230-5622.

Instrument Procedures

There are no published instrument procedures at 59LA.

Some nearby airports with instrument procedures:

KIYA - Abbeville Chris Crusta Memorial Airport (6 nm W)
KARA - Acadiana Regional Airport (7 nm NE)
KLFT - Lafayette Regional Airport/Paul Fournet Field (15 nm N)
KPTN - Harry P Williams Memorial Airport (36 nm SE)
KOPL - St Landry Parish Airport-Ahart Field (37 nm N)
 
Loc | Ops | Rwys | IFR | FBO | Links
Com | Nav | Svcs | Stats | Notes
Area around 59LA (Transco Delcambre Heliport)
 
Road maps at: MapQuest Bing Google
 
Aerial photo
No photo
 
Sectional chart

 
Airport distance calculator
Flying to Transco Delcambre Heliport? Find the distance to fly.

From to 59LA

Sunrise and sunset
Times for 02-Oct-2022
 Local
(UTC-5)
 Zulu
(UTC)
Morning civil twilight06:3911:39
Sunrise07:0312:03
Sunset18:5223:52
Evening civil twilight19:1600:16

Current date and time
Zulu (UTC)  02-Oct-2022 10:33:15
Local (UTC-5)  02-Oct-2022 05:33:15
 
METAR
K0R3 
5nm W 
118.875
No observation available
KIYA 
6nm W 
021015Z AUTO 00000KT 10SM CLR 10/08 A3006 RMK AO2 T01020075
KARA 
7nm NE 
020953Z AUTO 34003KT 10SM CLR 12/09 A3005 RMK AO2 SLP174 T01220094 $
KLFT 
15nm N 
020953Z AUTO 00000KT 10SM CLR 13/11 A3005 RMK AO2 SLP176 T01280106
TAF
KARA 
7nm NE 
020520Z 0206/0306 VRB03KT P6SM SKC FM021500 01007KT P6SM SKC FM030100 VRB03KT P6SM SKC
KLFT 
15nm N 
020520Z 0206/0306 VRB04KT P6SM SKC FM021500 01007KT P6SM SKC FM030100 VRB03KT P6SM SKC
NOTAMs
Click for the latest NOTAMs
NOTAMs are issued by the DoD/FAA and will open in a separate window not controlled by AirNav.

 

 
 

Would you like to see your business listed on this page?

 If your business provides an interesting product or service to pilots, flight crews, aircraft, or users of the Transco Delcambre Heliport, you should consider listing it here.  To start the listing process, click on the button below
 
Add a business
 

Other Pages about Transco Delcambre Heliport

Update a link
 
Copyright © AirNav, LLC. All rights reserved. Privacy Policy  Contact